Terminal Aerodrome Forecast
Issued by NWS

Home | Current Version | Previous Version | Text Only | Print | Product List | Glossary On
Versions: 1 2 3 4 5 6 7 8 9 10 11 12 13 14 15 16 17 18 19 20 21 22 23 24 25 26 27 28 29 30 31 32 33 34 35 36
000
FTUS45 KBOU 241732
TAFBJC
TAF
KBJC 241732Z 2418/2518 35014G22KT P6SM BKN050 BKN100
     FM242000 02011KT P6SM SCT050 BKN110
     FM250100 VRB05KT P6SM FEW060 SCT100
     FM250400 25006KT P6SM FEW250
     FM251500 15008KT P6SM SCT250=

USA.gov is the U.S. government's official web portal to all federal, state and local government web resources and services.